Time;durP1;ratioP1;P1;durP2;ratioP2;P2;SDS_P1;SDS_P2;PMS_P1;PMS_P2;Temp;Humidity;BMP_temperature;BMP_pressure;BME280_temperature;BME280_humidity;BME280_pressure;Samples;Min_cycle;Max_cycle;Signal;HPM_P1;HPM_P2
2021/05/24 00:00:46;;;;;;;5.90;3.47;;;;;;;6.90;98.76;101079.53;4918163;29;20058;-84
2021/05/24 00:03:13;;;;;;;5.67;3.60;;;;;;;6.86;98.90;101073.38;4900358;29;20092;-84
2021/05/24 00:05:41;;;;;;;4.67;3.77;;;;;;;6.87;98.17;101072.50;4880957;29;20462;-84
2021/05/24 00:08:07;;;;;;;6.23;3.57;;;;;;;6.83;99.11;101077.78;4887209;29;20044;-84
2021/05/24 00:10:36;;;;;;;4.17;3.77;;;;;;;6.85;98.95;101079.50;4886654;29;20047;-84
2021/05/24 00:13:07;;;;;;;5.47;3.73;;;;;;;6.84;98.58;101072.50;4908806;29;20200;-83
2021/05/24 00:15:37;;;;;;;5.63;3.80;;;;;;;6.76;100.00;101072.50;4905614;29;20062;-84
2021/05/24 00:18:05;;;;;;;4.40;3.53;;;;;;;6.88;99.20;101076.00;4884498;29;20067;-84
2021/05/24 00:20:34;;;;;;;4.50;3.30;;;;;;;6.76;99.11;101071.63;4913925;29;20048;-83
2021/05/24 00:23:01;;;;;;;4.90;3.77;;;;;;;6.75;99.88;101075.13;4914580;29;20043;-83
2021/05/24 00:25:29;;;;;;;5.20;3.60;;;;;;;6.73;99.94;101075.13;4897520;29;20047;-84
2021/05/24 00:27:57;;;;;;;4.50;3.30;;;;;;;6.75;99.76;101065.50;4885215;29;20091;-84
2021/05/24 00:30:26;;;;;;;4.80;3.90;;;;;;;6.78;99.54;101068.13;4900878;29;20052;-83
2021/05/24 00:32:53;;;;;;;5.10;3.70;;;;;;;6.75;99.42;101060.25;4885969;29;20044;-83
2021/05/24 00:35:19;;;;;;;4.57;3.50;;;;;;;6.73;99.18;101062.00;4897650;29;20558;-84
2021/05/24 00:37:46;;;;;;;6.37;3.87;;;;;;;6.74;99.24;101061.13;4916683;29;20042;-84
2021/05/24 00:40:13;;;;;;;4.97;4.33;;;;;;;6.73;100.00;101045.38;4917882;29;20046;-83
2021/05/24 00:42:40;;;;;;;5.87;3.57;;;;;;;6.77;99.71;101052.38;4992495;23;20987;-86
2021/05/24 00:45:08;;;;;;;6.83;3.90;;;;;;;6.78;98.48;101052.34;4922509;29;20044;-85
2021/05/24 00:47:35;;;;;;;4.23;3.53;;;;;;;6.69;99.79;101051.47;4901699;29;20048;-86
2021/05/24 00:50:03;;;;;;;5.20;3.77;;;;;;;6.71;99.72;101054.97;4870716;29;20802;-85
2021/05/24 00:52:30;;;;;;;6.03;3.97;;;;;;;6.70;99.33;101045.34;4918535;29;20104;-85
2021/05/24 00:54:56;;;;;;;5.03;3.70;;;;;;;6.69;99.31;101035.72;4919449;29;20048;-85
2021/05/24 00:57:23;;;;;;;5.37;3.40;;;;;;;6.62;99.65;101039.22;4869138;29;20040;-86
2021/05/24 00:59:50;;;;;;;7.57;4.47;;;;;;;6.63;99.38;101039.19;4910642;29;20072;-86
2021/05/24 01:02:16;;;;;;;5.43;3.90;;;;;;;6.53;99.62;101042.69;4884635;29;20040;-86
2021/05/24 01:04:43;;;;;;;5.77;4.43;;;;;;;6.57;98.45;101033.97;4915348;29;20549;-85
2021/05/24 01:07:10;;;;;;;6.17;4.17;;;;;;;6.52;98.75;101037.44;4914737;29;20524;-85
2021/05/24 01:09:36;;;;;;;4.60;3.70;;;;;;;6.43;99.75;101035.69;4912670;29;20041;-85
2021/05/24 01:12:03;;;;;;;5.33;3.87;;;;;;;6.43;99.42;101038.31;4885645;29;20048;-85
2021/05/24 01:14:30;;;;;;;5.87;3.90;;;;;;;6.41;99.49;101024.31;4912731;29;20525;-85
2021/05/24 01:16:57;;;;;;;5.17;4.07;;;;;;;6.40;100.00;101035.69;4896622;29;20051;-84
2021/05/24 01:19:24;;;;;;;5.43;3.87;;;;;;;6.41;99.57;101027.81;4896453;29;20055;-84
2021/05/24 01:21:51;;;;;;;4.77;3.97;;;;;;;6.35;99.54;101025.16;4911799;29;20479;-85
2021/05/24 01:24:19;;;;;;;4.70;4.00;;;;;;;6.33;99.01;101021.66;4888925;29;20048;-85
2021/05/24 01:26:46;;;;;;;5.33;4.00;;;;;;;6.34;98.44;101017.28;4866505;29;20071;-85
2021/05/24 01:29:19;;;;;;;6.50;4.20;;;;;;;6.40;98.02;101010.31;4898526;29;20044;-85
2021/05/24 01:31:49;;;;;;;5.50;4.33;;;;;;;6.23;99.12;101016.41;4890120;29;20076;-85
2021/05/24 01:34:16;;;;;;;4.63;4.03;;;;;;;6.18;100.00;101021.59;4922110;29;20073;-85
2021/05/24 01:36:44;;;;;;;5.07;4.00;;;;;;;6.06;100.00;101025.09;4876074;29;20048;-84
2021/05/24 01:39:11;;;;;;;5.03;4.40;;;;;;;6.08;99.88;101023.34;4887866;29;20040;-85
2021/05/24 01:41:38;;;;;;;6.40;4.17;;;;;;;6.07;99.18;101013.72;4883656;29;20059;-85
2021/05/24 01:44:05;;;;;;;5.07;4.17;;;;;;;6.09;99.56;101013.72;4913492;29;20040;-84
2021/05/24 01:46:32;;;;;;;6.03;4.80;;;;;;;5.99;99.37;101012.81;4912290;29;20051;-84
2021/05/24 01:48:59;;;;;;;6.30;4.10;;;;;;;5.95;98.80;101024.13;4881364;29;20423;-85
2021/05/24 01:51:26;;;;;;;5.07;4.30;;;;;;;5.91;100.00;101023.25;4895979;29;20108;-84
2021/05/24 01:53:52;;;;;;;6.13;4.47;;;;;;;5.86;100.00;101024.94;4887174;29;20044;-84
2021/05/24 01:56:19;;;;;;;5.67;4.23;;;;;;;5.83;100.00;101027.56;4866857;29;20044;-84
2021/05/24 01:58:46;;;;;;;5.43;4.43;;;;;;;5.84;100.00;101015.31;4894798;29;20079;-84
2021/05/24 02:01:12;;;;;;;5.83;4.80;;;;;;;5.83;100.00;101027.56;4881892;29;20051;-84
2021/05/24 02:03:39;;;;;;;5.53;4.70;;;;;;;5.77;99.56;101024.91;4897003;29;20052;-84
2021/05/24 02:06:06;;;;;;;8.17;4.47;;;;;;;5.85;98.92;101022.31;4912754;29;20107;-84
2021/05/24 02:08:33;;;;;;;7.23;4.60;;;;;;;5.81;99.31;101025.81;4902328;29;20044;-85
2021/05/24 02:11:02;;;;;;;6.23;4.60;;;;;;;5.76;100.00;101022.28;4917148;29;20055;-84
2021/05/24 02:13:29;;;;;;;6.53;4.50;;;;;;;5.77;100.00;101021.41;4918461;29;20135;-85
2021/05/24 02:15:55;;;;;;;5.17;4.13;;;;;;;5.72;100.00;101026.66;4913917;29;20040;-85
2021/05/24 02:18:22;;;;;;;6.13;4.13;;;;;;;5.61;100.00;101017.81;4897475;29;20055;-84
2021/05/24 02:20:49;;;;;;;6.37;4.10;;;;;;;5.59;100.00;101023.06;4896227;29;20040;-84
2021/05/24 02:23:16;;;;;;;8.73;4.33;;;;;;;5.61;100.00;101012.59;4910147;29;20059;-85
2021/05/24 02:25:43;;;;;;;6.67;3.70;;;;;;;5.72;100.00;101016.16;4891124;29;20048;-84
2021/05/24 02:28:10;;;;;;;5.23;3.90;;;;;;;5.68;100.00;101009.13;4894914;29;20063;-84
2021/05/24 02:30:36;;;;;;;5.70;4.40;;;;;;;5.65;99.88;101010.00;4896555;29;20044;-84
2021/05/24 02:33:04;;;;;;;5.97;4.50;;;;;;;5.63;99.65;101001.25;4906497;29;20048;-85
2021/05/24 02:35:31;;;;;;;5.33;3.83;;;;;;;5.57;99.71;101002.97;4912999;29;20055;-84
2021/05/24 02:37:58;;;;;;;4.47;3.80;;;;;;;5.51;100.00;101003.81;4886071;29;20051;-84
2021/05/24 02:40:25;;;;;;;5.27;4.17;;;;;;;5.45;100.00;101006.38;4882060;29;20051;-84
2021/05/24 02:42:52;;;;;;;5.70;4.30;;;;;;;5.43;100.00;101007.25;4871748;29;20454;-84
2021/05/24 02:45:19;;;;;;;9.47;5.50;;;;;;;5.39;99.86;101010.72;4895847;29;20060;-84
2021/05/24 02:47:47;;;;;;;5.80;4.30;;;;;;;5.46;100.00;101008.13;4887151;29;20048;-84
2021/05/24 02:50:18;;;;;;;6.63;5.00;;;;;;;5.39;99.93;101003.75;4896164;29;20044;-84
2021/05/24 02:52:45;;;;;;;6.30;4.77;;;;;;;5.33;100.00;100999.31;4895122;29;20079;-84
2021/05/24 02:55:11;;;;;;;6.07;4.13;;;;;;;5.29;100.00;100994.91;4911642;29;20107;-84
2021/05/24 02:57:39;;;;;;;5.73;4.60;;;;;;;5.29;100.00;100999.28;4897125;29;20044;-84
2021/05/24 03:00:07;;;;;;;5.27;4.23;;;;;;;5.24;100.00;100991.41;4896292;29;20044;-84
2021/05/24 03:02:42;;;;;;;5.40;4.37;;;;;;;5.28;100.00;100992.28;4903341;29;20055;-83
2021/05/24 03:05:10;;;;;;;6.60;4.93;;;;;;;5.26;100.00;100999.28;4914077;29;20055;-84
2021/05/24 03:07:37;;;;;;;5.83;4.20;;;;;;;5.26;100.00;100994.03;4895263;29;20044;-84
2021/05/24 03:10:04;;;;;;;5.30;4.27;;;;;;;5.30;100.00;100983.59;4899876;29;20044;-84
2021/05/24 03:12:30;;;;;;;5.93;4.67;;;;;;;5.30;100.00;100982.72;4911192;29;20048;-84
2021/05/24 03:14:57;;;;;;;4.87;4.00;;;;;;;5.36;100.00;100987.97;4881512;29;20044;-84
2021/05/24 03:17:24;;;;;;;6.53;4.37;;;;;;;5.37;100.00;100981.88;4885175;29;20047;-84
2021/05/24 03:19:51;;;;;;;5.00;4.07;;;;;;;5.34;100.00;100976.63;4914983;29;20040;-84
2021/05/24 03:22:17;;;;;;;6.90;4.70;;;;;;;5.30;100.00;100985.34;4914678;29;20044;-84
2021/05/24 03:24:44;;;;;;;6.40;4.17;;;;;;;5.32;100.00;100987.09;4915448;29;20044;-84
2021/05/24 03:27:11;;;;;;;5.60;4.17;;;;;;;5.42;100.00;100985.41;4906450;29;20040;-84
2021/05/24 03:29:37;;;;;;;6.83;4.40;;;;;;;5.44;100.00;100988.03;4895481;29;20092;-85
2021/05/24 03:32:04;;;;;;;5.23;4.10;;;;;;;5.44;100.00;100998.50;4917786;29;20052;-85
2021/05/24 03:34:31;;;;;;;4.90;3.97;;;;;;;5.45;100.00;101000.25;4894196;29;20066;-84
2021/05/24 03:36:58;;;;;;;4.90;3.87;;;;;;;5.45;100.00;100997.63;4890283;29;20040;-84
2021/05/24 03:39:24;;;;;;;5.73;4.47;;;;;;;5.46;100.00;100999.38;4902642;29;20044;-84
2021/05/24 03:41:51;;;;;;;5.13;4.60;;;;;;;5.52;100.00;101004.66;4884750;29;20060;-85
2021/05/24 03:44:19;;;;;;;6.07;4.67;;;;;;;5.50;100.00;101003.78;4888451;29;20649;-85
2021/05/24 03:46:45;;;;;;;6.27;4.27;;;;;;;5.49;100.00;101004.66;4919468;29;20044;-85
2021/05/24 03:49:12;;;;;;;6.73;4.70;;;;;;;5.51;100.00;101008.16;4899349;29;20045;-84
2021/05/24 03:51:40;;;;;;;5.17;4.37;;;;;;;5.56;100.00;101014.31;4886788;29;20597;-84
2021/05/24 03:54:07;;;;;;;7.10;4.37;;;;;;;5.60;100.00;101016.06;4904100;29;20056;-83
2021/05/24 03:56:33;;;;;;;6.57;4.67;;;;;;;5.64;100.00;101015.25;4898580;29;20424;-84
2021/05/24 03:59:00;;;;;;;6.57;5.13;;;;;;;5.72;100.00;101010.91;4887278;29;20063;-84
2021/05/24 04:01:27;;;;;;;7.27;5.53;;;;;;;5.66;100.00;101013.50;4907201;29;20054;-84
2021/05/24 04:03:55;;;;;;;5.80;4.63;;;;;;;5.69;100.00;101010.00;4891216;29;20087;-83
2021/05/24 04:06:25;;;;;;;5.90;4.27;;;;;;;5.69;100.00;101007.38;4906000;29;20103;-84
2021/05/24 04:08:51;;;;;;;4.87;4.37;;;;;;;5.64;100.00;101008.25;4905837;29;20044;-83
2021/05/24 04:11:18;;;;;;;6.20;4.73;;;;;;;5.61;100.00;101002.97;4891297;29;20052;-83
2021/05/24 04:13:54;;;;;;;6.73;4.30;;;;;;;5.80;100.00;101016.16;4891356;29;20130;-83
2021/05/24 04:16:21;;;;;;;6.10;4.57;;;;;;;5.89;100.00;101013.63;4921063;29;20422;-84
2021/05/24 04:18:50;;;;;;;5.13;4.27;;;;;;;5.90;100.00;101023.22;4906361;29;20047;-84
2021/05/24 04:21:17;;;;;;;7.07;4.40;;;;;;;6.00;100.00;101014.56;4921577;29;20048;-85
2021/05/24 04:23:44;;;;;;;8.30;4.83;;;;;;;6.00;100.00;101004.06;4906727;29;20056;-85
2021/05/24 04:26:15;;;;;;;5.23;4.03;;;;;;;5.96;100.00;101012.78;4907089;29;20055;-83
2021/05/24 04:28:44;;;;;;;5.83;5.00;;;;;;;5.96;100.00;101020.66;4921915;29;20044;-83
2021/05/24 04:31:11;;;;;;;6.33;5.00;;;;;;;5.99;100.00;101010.19;4890861;29;20044;-83
2021/05/24 04:33:37;;;;;;;6.97;5.40;;;;;;;6.05;100.00;101010.19;4890608;29;20051;-83
2021/05/24 04:36:04;;;;;;;7.77;5.13;;;;;;;6.11;100.00;101001.47;4905220;29;20056;-84
2021/05/24 04:38:31;;;;;;;6.13;4.80;;;;;;;6.12;100.00;100998.84;4921746;29;20052;-84
2021/05/24 04:40:58;;;;;;;6.27;5.07;;;;;;;6.24;100.00;101010.28;4921965;29;20044;-83
2021/05/24 04:43:29;;;;;;;7.20;5.20;;;;;;;6.31;100.00;101007.66;4905811;29;20521;-84
2021/05/24 04:45:56;;;;;;;6.07;5.13;;;;;;;6.42;100.00;101008.56;4919220;29;20048;-83
2021/05/24 04:48:29;;;;;;;5.70;5.07;;;;;;;6.47;100.00;100998.06;4888128;29;20048;-85
2021/05/24 04:50:55;;;;;;;5.57;4.50;;;;;;;6.44;100.00;101008.56;4903984;29;20063;-83
2021/05/24 04:53:22;;;;;;;5.03;4.20;;;;;;;6.47;100.00;100998.06;4902947;29;20044;-86
2021/05/24 04:55:49;;;;;;;7.27;4.90;;;;;;;6.65;100.00;101007.72;4911196;29;20637;-82
2021/05/24 04:58:20;;;;;;;6.33;4.73;;;;;;;6.69;100.00;100999.84;4907247;29;20241;-85
2021/05/24 05:00:50;;;;;;;6.63;4.70;;;;;;;6.73;100.00;100992.84;4872718;29;20139;-83
2021/05/24 05:03:17;;;;;;;5.57;4.40;;;;;;;6.89;100.00;100994.59;4921605;29;20091;-84
2021/05/24 05:05:44;;;;;;;5.57;4.43;;;;;;;7.17;100.00;100992.84;4910449;29;20047;-85
2021/05/24 05:08:11;;;;;;;5.47;4.30;;;;;;;7.76;100.00;100991.81;4916271;29;20048;-82
2021/05/24 05:10:38;;;;;;;5.90;4.00;;;;;;;7.95;100.00;100975.94;4883974;29;20045;-85
2021/05/24 05:13:07;;;;;;;5.37;4.10;;;;;;;7.98;100.00;100989.94;4883316;29;20044;-86
2021/05/24 05:15:37;;;;;;;4.03;3.60;;;;;;;8.08;100.00;100988.16;4870750;29;20059;-85
2021/05/24 05:18:03;;;;;;;5.00;3.90;;;;;;;8.07;100.00;100995.19;4886769;29;20463;-85
2021/05/24 05:20:30;;;;;;;4.23;3.23;;;;;;;8.07;100.00;100997.81;4922195;29;20502;-83
2021/05/24 05:22:57;;;;;;;5.33;3.70;;;;;;;8.05;100.00;100996.06;4886345;29;20059;-85
2021/05/24 05:25:23;;;;;;;4.87;3.67;;;;;;;8.29;100.00;101003.84;4909241;29;20092;-84
2021/05/24 05:27:50;;;;;;;3.63;3.27;;;;;;;8.43;100.00;100999.41;4897718;29;20138;-82
2021/05/24 05:30:17;;;;;;;4.13;3.70;;;;;;;8.53;100.00;101005.47;4900967;29;20032;-85
2021/05/24 05:32:44;;;;;;;4.83;3.80;;;;;;;8.58;100.00;101000.19;4869925;29;20048;-82
2021/05/24 05:35:13;;;;;;;4.30;3.67;;;;;;;8.64;100.00;101013.28;4902270;29;20047;-84
2021/05/24 05:37:41;;;;;;;5.13;4.30;;;;;;;8.70;100.00;101010.63;4918949;29;20108;-85
2021/05/24 05:40:16;;;;;;;3.60;3.23;;;;;;;8.69;100.00;101008.88;4914932;29;20052;-84
2021/05/24 05:42:43;;;;;;;4.33;3.50;;;;;;;8.87;100.00;101014.00;4920794;29;20044;-84
2021/05/24 05:45:17;;;;;;;5.73;2.97;;;;;;;8.96;100.00;101020.97;4885314;29;20040;-84
2021/05/24 05:47:44;;;;;;;;;;;;;;;9.31;100.00;101012.75;4892455;29;20046;-84
2021/05/24 05:50:11;;;;;;;6.13;3.03;;;;;;;9.67;100.00;101006.22;4900621;29;19923;-81
2021/05/24 05:52:38;;;;;;;3.83;2.60;;;;;;;10.34;99.64;101010.69;4924534;29;20477;-86
2021/05/24 05:55:08;;;;;;;3.00;2.70;;;;;;;10.77;95.52;101015.34;4900415;29;20534;-82
2021/05/24 05:57:35;;;;;;;3.60;2.45;;;;;;;11.30;93.37;101012.69;4883025;29;20044;-83
2021/05/24 06:00:04;;;;;;;2.70;2.15;;;;;;;13.10;82.23;101004.38;4916002;29;20455;-83
2021/05/24 06:02:31;;;;;;;2.58;2.03;;;;;;;14.84;74.14;101011.84;4869454;29;20044;-82
2021/05/24 06:04:57;;;;;;;2.05;1.85;;;;;;;15.96;68.40;101016.84;4885940;29;20100;-84
2021/05/24 06:07:24;;;;;;;3.55;2.33;;;;;;;16.30;66.17;101019.09;4901531;29;20101;-84
2021/05/24 06:09:50;;;;;;;2.50;2.22;;;;;;;16.40;62.96;101001.84;4898893;29;20092;-83
2021/05/24 06:12:18;;;;;;;3.25;2.17;;;;;;;16.44;63.88;101003.44;4887914;29;20103;-83
2021/05/24 06:14:45;;;;;;;2.97;1.92;;;;;;;16.40;64.38;101006.31;4916504;29;20476;-83
2021/05/24 06:17:11;;;;;;;2.38;1.90;;;;;;;16.24;64.67;101011.34;4899561;29;20870;-83
2021/05/24 06:19:38;;;;;;;2.58;2.10;;;;;;;16.10;62.67;101003.88;4896806;29;20048;-83
2021/05/24 06:22:06;;;;;;;2.35;2.05;;;;;;;16.35;64.00;101013.59;4913177;29;20072;-84
2021/05/24 06:24:36;;;;;;;2.45;1.60;;;;;;;16.62;62.23;101007.16;4890956;29;20052;-86
2021/05/24 06:27:03;;;;;;;2.95;2.00;;;;;;;16.86;61.49;101010.69;4918453;29;20047;-85
2021/05/24 06:29:31;;;;;;;2.20;1.60;;;;;;;16.89;59.95;101010.53;4898848;29;20040;-86
2021/05/24 06:31:58;;;;;;;2.85;1.92;;;;;;;16.80;60.83;101011.78;4894420;29;20044;-85
2021/05/24 06:34:27;;;;;;;3.00;1.73;;;;;;;16.88;64.27;101017.69;4898930;29;20044;-86
2021/05/24 06:36:54;;;;;;;2.08;1.50;;;;;;;17.04;60.75;101015.25;4898499;29;20530;-85
2021/05/24 06:39:27;;;;;;;1.50;1.40;;;;;;;17.28;61.46;101010.69;4918985;29;20082;-85
2021/05/24 06:41:54;;;;;;;2.53;1.73;;;;;;;17.18;58.01;101006.69;4884672;29;20067;-85
2021/05/24 06:44:21;;;;;;;1.73;1.55;;;;;;;17.24;59.06;101001.09;4899622;29;20064;-86
2021/05/24 06:46:48;;;;;;;2.78;1.85;;;;;;;17.21;57.02;100997.66;4916593;29;20198;-86
2021/05/24 06:49:18;;;;;;;2.13;1.50;;;;;;;17.43;60.70;100998.50;4915513;29;20044;-86
2021/05/24 06:51:48;;;;;;;2.78;1.80;;;;;;;17.31;57.55;101007.88;4920032;29;20496;-85
2021/05/24 06:54:17;;;;;;;1.50;1.40;;;;;;;17.35;58.54;101001.50;4908089;29;20051;-87
2021/05/24 06:56:52;;;;;;;3.72;1.67;;;;;;;17.57;58.44;101000.53;4900489;29;20574;-86
2021/05/24 06:59:22;;;;;;;2.22;1.75;;;;;;;17.76;57.24;101008.66;4899885;29;20051;-84
2021/05/24 07:01:50;;;;;;;2.60;1.77;;;;;;;17.92;55.40;101002.56;4923894;29;20665;-86
2021/05/24 07:04:17;;;;;;;3.60;1.83;;;;;;;17.87;52.37;100988.53;4914700;29;20162;-85
2021/05/24 07:06:44;;;;;;;2.40;1.73;;;;;;;18.03;57.70;100987.84;4884908;29;20039;-85
2021/05/24 07:09:12;;;;;;;1.70;1.30;;;;;;;18.09;55.33;100995.56;4888731;29;20075;-84
2021/05/24 07:11:38;;;;;;;1.80;1.40;;;;;;;18.18;54.69;101003.16;4904336;29;20044;-86
2021/05/24 07:14:05;;;;;;;2.03;1.42;;;;;;;18.13;53.26;101000.69;4911213;29;20054;-84
2021/05/24 07:16:32;;;;;;;2.65;1.38;;;;;;;18.13;53.43;100992.66;4908977;29;20040;-85
2021/05/24 07:18:59;;;;;;;2.75;1.70;;;;;;;18.17;52.73;100988.06;4915464;29;20040;-84
2021/05/24 07:21:26;;;;;;;1.40;1.20;;;;;;;18.19;53.93;100986.19;4924225;29;20046;-86
2021/05/24 07:23:53;;;;;;;2.28;1.50;;;;;;;18.41;55.24;100994.03;4903068;29;20422;-85
2021/05/24 07:26:24;;;;;;;1.75;1.30;;;;;;;18.55;53.55;100983.56;4888169;29;20048;-85
2021/05/24 07:28:51;;;;;;;3.75;1.30;;;;;;;18.59;51.89;100987.84;4905971;29;20530;-87
2021/05/24 07:31:18;;;;;;;1.10;1.00;;;;;;;18.59;49.04;100968.22;4897534;29;20046;-86
2021/05/24 07:33:44;;;;;;;1.65;1.20;;;;;;;18.74;53.72;100975.53;4890957;29;20044;-85
2021/05/24 07:36:11;;;;;;;2.55;1.38;;;;;;;18.88;51.73;100977.53;4875007;29;20052;-86
2021/05/24 07:38:38;;;;;;;1.27;1.10;;;;;;;18.82;49.89;100976.88;4920130;29;20044;-85
2021/05/24 07:41:05;;;;;;;1.52;1.30;;;;;;;18.86;49.26;100974.06;4906680;29;20059;-84
2021/05/24 07:43:32;;;;;;;1.27;1.17;;;;;;;18.90;49.78;100973.81;4906140;29;20162;-85
2021/05/24 07:46:01;;;;;;;2.33;1.20;;;;;;;18.99;49.02;100965.31;4917168;29;20054;-85
2021/05/24 07:48:27;;;;;;;1.88;1.02;;;;;;;19.04;50.16;100957.06;4901788;29;20047;-86
2021/05/24 07:50:54;;;;;;;1.27;1.15;;;;;;;19.17;49.46;100951.94;4886722;29;20079;-86
2021/05/24 07:53:21;;;;;;;2.55;1.20;;;;;;;19.13;47.35;100945.88;4915804;29;20095;-85
2021/05/24 07:55:50;;;;;;;1.90;1.10;;;;;;;19.28;48.45;100946.91;4895549;29;20052;-86
2021/05/24 07:58:17;;;;;;;2.25;1.25;;;;;;;19.22;47.65;100940.06;4907752;29;20505;-84
2021/05/24 08:00:43;;;;;;;2.17;1.10;;;;;;;19.32;46.44;100943.09;4915438;29;20059;-85
2021/05/24 08:03:10;;;;;;;3.03;1.30;;;;;;;19.43;47.85;100938.06;4901226;29;20055;-86
2021/05/24 08:05:37;;;;;;;1.83;1.00;;;;;;;19.29;45.10;100940.59;4907437;29;20048;-84
2021/05/24 08:08:05;;;;;;;2.10;1.05;;;;;;;19.51;47.21;100941.22;4919575;29;20052;-86
2021/05/24 08:10:32;;;;;;;1.10;1.00;;;;;;;19.56;44.84;100938.28;4899076;29;20040;-84
2021/05/24 08:12:58;;;;;;;1.33;1.23;;;;;;;19.59;46.58;100940.81;4901933;29;20059;-85
2021/05/24 08:15:29;;;;;;;1.35;1.00;;;;;;;19.73;42.83;100937.41;4915908;29;20039;-86
2021/05/24 08:17:58;;;;;;;3.33;0.98;;;;;;;19.64;44.25;100936.09;4899025;29;20567;-85
2021/05/24 08:20:25;;;;;;;2.40;0.93;;;;;;;19.65;43.21;100932.44;4920410;29;20040;-84
2021/05/24 08:22:51;;;;;;;2.20;1.25;;;;;;;19.64;45.17;100928.91;4921884;29;20103;-85
2021/05/24 08:25:18;;;;;;;2.03;1.08;;;;;;;19.68;43.30;100925.13;4899915;29;20095;-85
2021/05/24 08:27:49;;;;;;;2.67;1.27;;;;;;;19.70;46.29;100926.84;4890277;29;20043;-83
2021/05/24 08:30:29;;;;;;;1.42;0.90;;;;;;;19.60;44.35;100927.34;4886838;29;20105;-84
2021/05/24 08:32:55;;;;;;;1.65;1.00;;;;;;;19.58;43.29;100929.22;4911458;29;20048;-85
2021/05/24 08:35:22;;;;;;;3.90;1.55;;;;;;;19.42;45.60;100930.94;4914837;29;20040;-85
2021/05/24 08:37:49;;;;;;;1.52;0.98;;;;;;;19.56;43.80;100923.09;4906405;29;20499;-85
2021/05/24 08:40:18;;;;;;;1.58;1.00;;;;;;;19.78;45.38;100925.50;4918845;29;20043;-85
2021/05/24 08:42:45;;;;;;;2.45;1.08;;;;;;;20.12;44.44;100920.94;4896578;29;20051;-85
2021/05/24 08:45:13;;;;;;;1.77;1.00;;;;;;;20.29;45.60;100920.00;4924100;29;20043;-84
2021/05/24 08:47:41;;;;;;;3.17;1.05;;;;;;;20.34;42.38;100923.25;4895903;29;20425;-86
2021/05/24 08:50:11;;;;;;;2.22;1.00;;;;;;;20.43;43.45;100923.66;4917625;29;20049;-84
2021/05/24 08:52:37;;;;;;;1.65;1.23;;;;;;;20.12;40.67;100912.91;4896370;29;20052;-86
2021/05/24 08:55:04;;;;;;;1.42;1.00;;;;;;;20.23;45.17;100907.78;4901180;29;20047;-85
2021/05/24 08:57:31;;;;;;;2.55;1.10;;;;;;;20.12;41.03;100907.53;4906460;29;20062;-85
2021/05/24 08:59:58;;;;;;;2.03;1.00;;;;;;;20.44;42.96;100906.59;4903867;29;20052;-83
2021/05/24 09:02:25;;;;;;;3.28;1.27;;;;;;;20.35;41.56;100900.88;4888423;29;20040;-87
2021/05/24 09:04:52;;;;;;;1.63;1.10;;;;;;;20.22;43.68;100909.59;4915352;29;20048;-86
2021/05/24 09:07:19;;;;;;;1.98;0.98;;;;;;;19.85;41.72;100902.75;4883566;29;20091;-85
2021/05/24 09:10:04;;;;;;;1.00;0.90;;;;;;;19.46;42.42;100888.81;4885943;29;20051;-86
2021/05/24 09:12:32;;;;;;;2.13;1.00;;;;;;;19.20;43.05;100896.41;4902258;29;20036;-86
2021/05/24 09:15:10;;;;;;;1.40;0.98;;;;;;;18.97;44.33;100902.09;4901026;29;20048;-85
2021/05/24 09:17:45;;;;;;;3.05;1.55;;;;;;;19.35;45.23;100900.97;4875122;29;20048;-86
2021/05/24 09:20:39;;;;;;;2.55;1.20;;;;;;;19.85;43.97;100896.53;4894296;29;20049;-85
2021/05/24 09:23:23;;;;;;;2.67;1.75;;;;;;;20.42;42.73;100902.22;4915926;29;20090;-88
2021/05/24 09:25:58;;;;;;;2.38;1.20;;;;;;;20.71;41.12;100879.09;4899908;29;20052;-87
2021/05/24 09:28:34;;;;;;;1.08;0.90;;;;;;;20.82;39.99;100873.09;4908750;29;20726;-86
2021/05/24 09:31:12;;;;;;;2.72;1.08;;;;;;;20.96;41.58;100875.81;4881061;29;20052;-87
2021/05/24 09:33:47;;;;;;;3.65;1.30;;;;;;;21.18;41.93;100867.31;4870943;29;20396;-87
2021/05/24 09:36:14;;;;;;;1.90;0.88;;;;;;;21.11;41.70;100866.84;4905983;29;20044;-85
2021/05/24 09:38:47;;;;;;;2.50;1.10;;;;;;;21.02;37.24;100862.00;4887946;29;20449;-86
2021/05/24 09:41:17;;;;;;;3.33;1.15;;;;;;;20.66;40.15;100865.94;4913863;29;20088;-86
2021/05/24 09:43:48;;;;;;;2.92;1.30;;;;;;;20.73;42.81;100867.31;4890294;29;20043;-86
2021/05/24 09:46:20;;;;;;;2.33;1.15;;;;;;;21.01;40.00;100862.97;4888993;29;20074;-86
2021/05/24 09:48:52;;;;;;;0.77;0.77;;;;;;;21.44;38.13;100857.66;4885131;29;20071;-86
2021/05/24 09:51:22;;;;;;;1.55;1.00;;;;;;;21.32;39.81;100854.78;4862237;29;20048;-86
2021/05/24 09:54:09;;;;;;;2.70;1.05;;;;;;;21.35;40.06;100864.47;4880044;29;20049;-89
2021/05/24 09:56:43;;;;;;;2.25;1.02;;;;;;;21.41;38.71;100861.41;4885474;29;20097;-87
2021/05/24 09:59:28;;;;;;;1.35;0.90;;;;;;;21.30;36.71;100848.66;4867165;29;20493;-89
2021/05/24 10:01:57;;;;;;;2.92;1.33;;;;;;;21.56;40.39;100835.41;4903207;29;20044;-88
2021/05/24 10:04:32;;;;;;;1.83;1.00;;;;;;;21.47;40.93;100842.22;4883379;29;20055;-88
2021/05/24 10:07:01;;;;;;;1.42;0.90;;;;;;;21.39;38.93;100836.47;4889463;29;20413;-87
2021/05/24 10:09:33;;;;;;;2.75;1.13;;;;;;;21.62;39.23;100840.41;4924934;29;20135;-85
2021/05/24 10:12:02;;;;;;;2.08;1.10;;;;;;;21.53;36.66;100828.41;4883994;29;20036;-86
2021/05/24 10:14:33;;;;;;;0.80;0.80;;;;;;;21.56;36.45;100819.25;4887316;29;20463;-88
2021/05/24 10:17:03;;;;;;;0.88;0.82;;;;;;;21.74;36.73;100811.84;4876464;29;20549;-87
2021/05/24 10:19:31;;;;;;;2.40;0.98;;;;;;;21.43;38.16;100808.41;4881380;29;20453;-86
2021/05/24 10:21:58;;;;;;;1.33;1.10;;;;;;;21.22;37.13;100815.97;4867085;29;20040;-87
2021/05/24 10:24:25;;;;;;;1.95;1.00;;;;;;;21.00;41.31;100805.69;4896494;29;20498;-87
2021/05/24 10:26:59;;;;;;;1.30;0.98;;;;;;;20.82;38.24;100804.13;4918132;29;20044;-89
2021/05/24 10:29:31;;;;;;;2.13;1.05;;;;;;;20.90;38.77;100803.66;4889152;29;20069;-87
2021/05/24 10:32:00;;;;;;;2.42;1.20;;;;;;;21.03;39.64;100801.97;4901907;29;20074;-88
2021/05/24 10:34:35;;;;;;;0.95;0.80;;;;;;;21.28;39.13;100787.91;4915689;29;20254;-88
2021/05/24 10:37:11;;;;;;;1.85;1.15;;;;;;;21.51;38.17;100794.50;4902878;29;20502;-87
2021/05/24 10:39:45;;;;;;;1.85;1.08;;;;;;;21.09;37.79;100798.88;4904134;29;20135;-86
2021/05/24 10:42:13;;;;;;;;;;;;;;;20.87;37.51;100790.44;4888425;29;20036;-88
2021/05/24 10:44:43;;;;;;;1.83;0.90;;;;;;;20.72;37.58;100787.72;4899595;29;19931;-87
2021/05/24 10:47:25;;;;;;;1.10;0.90;;;;;;;20.55;38.83;100778.97;4903945;29;20441;-86
2021/05/24 10:50:07;;;;;;;1.88;0.90;;;;;;;20.67;39.68;100771.00;4876696;29;20051;-86
2021/05/24 10:52:41;;;;;;;1.35;1.25;;;;;;;21.08;37.59;100778.34;4873846;29;20056;-88
2021/05/24 10:55:26;;;;;;;1.52;1.10;;;;;;;20.90;35.64;100784.88;4901061;29;20048;-84
2021/05/24 10:58:05;;;;;;;5.78;1.33;;;;;;;20.83;36.00;100764.72;4919502;29;20303;-87
2021/05/24 11:00:55;;;;;;;1.08;0.88;;;;;;;20.66;37.67;100752.31;4882928;29;20651;-88
2021/05/24 11:03:23;;;;;;;1.92;1.00;;;;;;;20.83;40.06;100748.59;4868746;29;20062;-88
2021/05/24 11:06:12;;;;;;;1.65;0.90;;;;;;;21.14;39.00;100744.88;4907108;29;20058;-86
2021/05/24 11:08:42;;;;;;;1.55;1.00;;;;;;;21.44;38.13;100750.13;4904441;29;20476;-87
2021/05/24 11:11:24;;;;;;;1.10;0.80;;;;;;;21.40;37.34;100745.94;4890572;29;20529;-85
2021/05/24 11:14:03;;;;;;;2.28;1.08;;;;;;;20.79;35.89;100726.47;4882457;29;20045;-87
2021/05/24 11:16:34;;;;;;;1.35;0.90;;;;;;;20.82;40.10;100725.41;4899455;29;20051;-86
2021/05/24 11:19:14;;;;;;;2.45;0.90;;;;;;;20.89;40.59;100726.75;4900564;29;20044;-86
2021/05/24 11:21:53;;;;;;;1.45;0.80;;;;;;;20.59;37.56;100727.66;4870739;29;20048;-87
2021/05/24 11:24:41;;;;;;;2.08;1.45;;;;;;;20.69;39.61;100719.94;4920168;29;20131;-87
2021/05/24 11:27:14;;;;;;;2.97;1.00;;;;;;;21.12;41.46;100717.25;4914441;29;20059;-85
2021/05/24 11:29:43;;;;;;;1.60;1.20;;;;;;;21.44;38.36;100708.03;4887017;29;20040;-87
2021/05/24 11:32:19;;;;;;;1.45;0.90;;;;;;;21.64;36.46;100694.13;4903296;29;20662;-85
2021/05/24 11:34:46;;;;;;;2.35;0.90;;;;;;;21.63;37.09;100705.00;4898901;29;20498;-87